METAR Formatted Surface Weather Observation
Issued by NWS

Home | Current Version | Previous Version | Text Only | Print | Product List | Glossary On
Versions: 1 2
000
SAUS41 KLWX 031900
MTRRYT
METAR KRYT 031853Z AUTO 00000KT 10SM OVC034 M02/M09 A3015 RMK AO2
UPB32E47 SLP230 P0000 T10221089 $



USA.gov is the U.S. government's official web portal to all federal, state and local government web resources and services.